sensor_id;sensor_type;location;lat;lon;timestamp;P1;durP1;ratioP1;P2;durP2;ratioP2
61685;SDS011;47592;45.904;8.978;2023-06-10T00:02:15;8.50;;;4.45;;
61685;SDS011;47592;45.904;8.978;2023-06-10T00:04:42;7.82;;;4.65;;
61685;SDS011;47592;45.904;8.978;2023-06-10T00:07:07;9.70;;;4.85;;
61685;SDS011;47592;45.904;8.978;2023-06-10T00:09:33;7.22;;;5.22;;
61685;SDS011;47592;45.904;8.978;2023-06-10T00:12:01;8.63;;;4.78;;
61685;SDS011;47592;45.904;8.978;2023-06-10T00:14:30;7.20;;;4.65;;
61685;SDS011;47592;45.904;8.978;2023-06-10T00:16:55;7.80;;;4.75;;
61685;SDS011;47592;45.904;8.978;2023-06-10T00:19:23;6.97;;;4.75;;
61685;SDS011;47592;45.904;8.978;2023-06-10T00:21:55;8.77;;;5.10;;
61685;SDS011;47592;45.904;8.978;2023-06-10T00:24:23;6.72;;;4.28;;
61685;SDS011;47592;45.904;8.978;2023-06-10T00:26:49;7.18;;;4.57;;
61685;SDS011;47592;45.904;8.978;2023-06-10T00:29:14;6.85;;;4.22;;
61685;SDS011;47592;45.904;8.978;2023-06-10T00:31:40;7.40;;;4.57;;
61685;SDS011;47592;45.904;8.978;2023-06-10T00:34:11;7.18;;;4.80;;
61685;SDS011;47592;45.904;8.978;2023-06-10T00:36:39;9.52;;;5.13;;
61685;SDS011;47592;45.904;8.978;2023-06-10T00:39:05;7.90;;;4.60;;
61685;SDS011;47592;45.904;8.978;2023-06-10T00:41:36;10.27;;;5.05;;
61685;SDS011;47592;45.904;8.978;2023-06-10T00:44:23;8.88;;;4.75;;
61685;SDS011;47592;45.904;8.978;2023-06-10T00:47:34;9.63;;;5.15;;
61685;SDS011;47592;45.904;8.978;2023-06-10T00:50:00;9.43;;;5.07;;
61685;SDS011;47592;45.904;8.978;2023-06-10T00:53:25;8.10;;;4.45;;
61685;SDS011;47592;45.904;8.978;2023-06-10T00:56:51;7.47;;;4.97;;
61685;SDS011;47592;45.904;8.978;2023-06-10T01:00:16;7.93;;;4.30;;
61685;SDS011;47592;45.904;8.978;2023-06-10T01:03:42;6.93;;;4.45;;
61685;SDS011;47592;45.904;8.978;2023-06-10T01:07:13;7.65;;;4.78;;
61685;SDS011;47592;45.904;8.978;2023-06-10T01:10:50;7.30;;;4.70;;
61685;SDS011;47592;45.904;8.978;2023-06-10T01:14:20;8.57;;;4.93;;
61685;SDS011;47592;45.904;8.978;2023-06-10T01:21:23;6.97;;;4.53;;
61685;SDS011;47592;45.904;8.978;2023-06-10T01:24:53;8.82;;;5.10;;
61685;SDS011;47592;45.904;8.978;2023-06-10T01:28:36;7.40;;;4.70;;
61685;SDS011;47592;45.904;8.978;2023-06-10T01:35:30;6.60;;;4.47;;
61685;SDS011;47592;45.904;8.978;2023-06-10T01:38:56;7.30;;;4.97;;
61685;SDS011;47592;45.904;8.978;2023-06-10T01:42:25;6.95;;;4.78;;
61685;SDS011;47592;45.904;8.978;2023-06-10T01:45:30;8.10;;;4.90;;
61685;SDS011;47592;45.904;8.978;2023-06-10T01:47:58;8.15;;;5.05;;
61685;SDS011;47592;45.904;8.978;2023-06-10T01:50:23;8.73;;;5.70;;
61685;SDS011;47592;45.904;8.978;2023-06-10T01:52:49;7.85;;;5.55;;
61685;SDS011;47592;45.904;8.978;2023-06-10T01:55:14;7.93;;;5.30;;
61685;SDS011;47592;45.904;8.978;2023-06-10T01:58:44;7.50;;;5.30;;
61685;SDS011;47592;45.904;8.978;2023-06-10T02:01:58;7.97;;;5.20;;
61685;SDS011;47592;45.904;8.978;2023-06-10T02:05:21;7.75;;;5.28;;
61685;SDS011;47592;45.904;8.978;2023-06-10T02:08:47;6.72;;;4.90;;
61685;SDS011;47592;45.904;8.978;2023-06-10T02:12:16;9.05;;;6.40;;
61685;SDS011;47592;45.904;8.978;2023-06-10T02:15:40;8.98;;;5.05;;
61685;SDS011;47592;45.904;8.978;2023-06-10T02:19:04;8.15;;;4.80;;
61685;SDS011;47592;45.904;8.978;2023-06-10T02:22:31;7.57;;;5.20;;
61685;SDS011;47592;45.904;8.978;2023-06-10T02:25:55;7.90;;;5.18;;
61685;SDS011;47592;45.904;8.978;2023-06-10T02:29:20;7.63;;;5.78;;
61685;SDS011;47592;45.904;8.978;2023-06-10T02:32:46;9.23;;;6.13;;
61685;SDS011;47592;45.904;8.978;2023-06-10T02:36:13;7.78;;;5.38;;
61685;SDS011;47592;45.904;8.978;2023-06-10T02:39:39;9.27;;;5.68;;
61685;SDS011;47592;45.904;8.978;2023-06-10T02:43:06;9.63;;;6.32;;
61685;SDS011;47592;45.904;8.978;2023-06-10T02:46:29;9.23;;;6.07;;
61685;SDS011;47592;45.904;8.978;2023-06-10T02:49:55;10.57;;;5.72;;
61685;SDS011;47592;45.904;8.978;2023-06-10T02:53:20;9.02;;;5.85;;
61685;SDS011;47592;45.904;8.978;2023-06-10T02:56:45;8.55;;;5.80;;
61685;SDS011;47592;45.904;8.978;2023-06-10T03:00:12;8.60;;;5.57;;
61685;SDS011;47592;45.904;8.978;2023-06-10T03:03:36;8.52;;;5.90;;
61685;SDS011;47592;45.904;8.978;2023-06-10T03:07:06;9.98;;;6.25;;
61685;SDS011;47592;45.904;8.978;2023-06-10T03:10:30;8.43;;;5.47;;
61685;SDS011;47592;45.904;8.978;2023-06-10T03:13:54;7.72;;;5.68;;
61685;SDS011;47592;45.904;8.978;2023-06-10T03:17:17;8.80;;;5.47;;
61685;SDS011;47592;45.904;8.978;2023-06-10T03:20:41;7.63;;;5.30;;
61685;SDS011;47592;45.904;8.978;2023-06-10T03:24:08;8.80;;;6.38;;
61685;SDS011;47592;45.904;8.978;2023-06-10T03:27:42;8.23;;;5.95;;
61685;SDS011;47592;45.904;8.978;2023-06-10T03:31:06;7.40;;;5.72;;
61685;SDS011;47592;45.904;8.978;2023-06-10T03:34:30;8.23;;;5.85;;
61685;SDS011;47592;45.904;8.978;2023-06-10T03:37:54;9.32;;;6.05;;
61685;SDS011;47592;45.904;8.978;2023-06-10T03:41:21;9.30;;;6.18;;
61685;SDS011;47592;45.904;8.978;2023-06-10T03:44:48;9.48;;;6.13;;
61685;SDS011;47592;45.904;8.978;2023-06-10T03:48:13;9.63;;;6.18;;
61685;SDS011;47592;45.904;8.978;2023-06-10T03:51:37;10.57;;;6.40;;
61685;SDS011;47592;45.904;8.978;2023-06-10T03:55:03;8.63;;;6.15;;
61685;SDS011;47592;45.904;8.978;2023-06-10T03:58:27;9.82;;;6.45;;
61685;SDS011;47592;45.904;8.978;2023-06-10T04:01:50;9.90;;;6.22;;
61685;SDS011;47592;45.904;8.978;2023-06-10T04:05:16;8.70;;;6.50;;
61685;SDS011;47592;45.904;8.978;2023-06-10T04:08:41;11.52;;;6.70;;
61685;SDS011;47592;45.904;8.978;2023-06-10T04:12:05;9.07;;;6.28;;
61685;SDS011;47592;45.904;8.978;2023-06-10T04:15:29;11.32;;;6.78;;
61685;SDS011;47592;45.904;8.978;2023-06-10T04:18:53;8.70;;;5.97;;
61685;SDS011;47592;45.904;8.978;2023-06-10T04:22:18;8.60;;;6.22;;
61685;SDS011;47592;45.904;8.978;2023-06-10T04:25:42;8.85;;;6.00;;
61685;SDS011;47592;45.904;8.978;2023-06-10T04:29:08;9.00;;;6.00;;
61685;SDS011;47592;45.904;8.978;2023-06-10T04:32:32;9.05;;;6.03;;
61685;SDS011;47592;45.904;8.978;2023-06-10T04:35:56;9.23;;;6.43;;
61685;SDS011;47592;45.904;8.978;2023-06-10T04:39:20;9.10;;;6.22;;
61685;SDS011;47592;45.904;8.978;2023-06-10T04:42:44;10.30;;;7.10;;
61685;SDS011;47592;45.904;8.978;2023-06-10T04:46:11;10.25;;;6.97;;
61685;SDS011;47592;45.904;8.978;2023-06-10T04:49:35;9.13;;;7.00;;
61685;SDS011;47592;45.904;8.978;2023-06-10T04:52:59;10.23;;;6.78;;
61685;SDS011;47592;45.904;8.978;2023-06-10T04:56:23;11.07;;;7.13;;
61685;SDS011;47592;45.904;8.978;2023-06-10T04:59:49;9.50;;;6.68;;
61685;SDS011;47592;45.904;8.978;2023-06-10T05:03:19;10.05;;;6.95;;
61685;SDS011;47592;45.904;8.978;2023-06-10T05:06:43;8.98;;;6.88;;
61685;SDS011;47592;45.904;8.978;2023-06-10T05:10:09;9.90;;;6.47;;
61685;SDS011;47592;45.904;8.978;2023-06-10T05:13:33;10.32;;;6.85;;
61685;SDS011;47592;45.904;8.978;2023-06-10T05:16:57;10.73;;;7.15;;
61685;SDS011;47592;45.904;8.978;2023-06-10T05:20:22;9.88;;;7.32;;
61685;SDS011;47592;45.904;8.978;2023-06-10T05:23:46;8.68;;;6.43;;
61685;SDS011;47592;45.904;8.978;2023-06-10T05:27:10;8.85;;;6.45;;
61685;SDS011;47592;45.904;8.978;2023-06-10T05:30:38;10.00;;;6.93;;
61685;SDS011;47592;45.904;8.978;2023-06-10T05:34:02;10.52;;;6.80;;
61685;SDS011;47592;45.904;8.978;2023-06-10T05:37:29;8.30;;;6.30;;
61685;SDS011;47592;45.904;8.978;2023-06-10T05:40:53;9.07;;;6.15;;
61685;SDS011;47592;45.904;8.978;2023-06-10T05:44:11;7.90;;;5.70;;
61685;SDS011;47592;45.904;8.978;2023-06-10T05:47:35;8.98;;;6.05;;
61685;SDS011;47592;45.904;8.978;2023-06-10T05:50:59;7.97;;;5.80;;
61685;SDS011;47592;45.904;8.978;2023-06-10T05:54:24;8.57;;;6.30;;
61685;SDS011;47592;45.904;8.978;2023-06-10T05:57:48;11.18;;;7.00;;
61685;SDS011;47592;45.904;8.978;2023-06-10T06:01:21;11.23;;;6.20;;
61685;SDS011;47592;45.904;8.978;2023-06-10T06:04:45;8.85;;;6.78;;
61685;SDS011;47592;45.904;8.978;2023-06-10T06:08:09;8.73;;;6.30;;
61685;SDS011;47592;45.904;8.978;2023-06-10T06:11:38;9.85;;;6.47;;
61685;SDS011;47592;45.904;8.978;2023-06-10T06:15:02;9.65;;;6.55;;
61685;SDS011;47592;45.904;8.978;2023-06-10T06:18:26;8.98;;;6.07;;
61685;SDS011;47592;45.904;8.978;2023-06-10T06:21:55;9.50;;;6.47;;
61685;SDS011;47592;45.904;8.978;2023-06-10T06:25:21;9.07;;;6.25;;
61685;SDS011;47592;45.904;8.978;2023-06-10T06:28:47;8.68;;;6.30;;
61685;SDS011;47592;45.904;8.978;2023-06-10T06:32:11;8.20;;;6.13;;
61685;SDS011;47592;45.904;8.978;2023-06-10T06:35:35;9.35;;;6.55;;
61685;SDS011;47592;45.904;8.978;2023-06-10T06:39:01;9.95;;;6.15;;
61685;SDS011;47592;45.904;8.978;2023-06-10T06:42:25;10.60;;;6.22;;
61685;SDS011;47592;45.904;8.978;2023-06-10T06:45:49;8.43;;;6.25;;
61685;SDS011;47592;45.904;8.978;2023-06-10T06:49:16;8.48;;;6.40;;
61685;SDS011;47592;45.904;8.978;2023-06-10T06:52:40;10.00;;;6.70;;
61685;SDS011;47592;45.904;8.978;2023-06-10T06:56:09;10.82;;;6.93;;
61685;SDS011;47592;45.904;8.978;2023-06-10T06:59:33;9.05;;;6.57;;
61685;SDS011;47592;45.904;8.978;2023-06-10T07:02:57;9.00;;;6.90;;
61685;SDS011;47592;45.904;8.978;2023-06-10T07:05:48;8.55;;;6.43;;
61685;SDS011;47592;45.904;8.978;2023-06-10T07:09:12;8.52;;;6.50;;
61685;SDS011;47592;45.904;8.978;2023-06-10T07:12:36;10.23;;;7.10;;
61685;SDS011;47592;45.904;8.978;2023-06-10T07:16:00;8.75;;;6.97;;
61685;SDS011;47592;45.904;8.978;2023-06-10T07:19:24;10.88;;;7.38;;
61685;SDS011;47592;45.904;8.978;2023-06-10T07:22:48;10.85;;;7.45;;
61685;SDS011;47592;45.904;8.978;2023-06-10T07:26:12;10.13;;;8.07;;
61685;SDS011;47592;45.904;8.978;2023-06-10T07:29:36;10.50;;;7.88;;
61685;SDS011;47592;45.904;8.978;2023-06-10T07:33:00;12.65;;;8.18;;
61685;SDS011;47592;45.904;8.978;2023-06-10T07:36:26;10.98;;;7.75;;
61685;SDS011;47592;45.904;8.978;2023-06-10T07:39:50;9.52;;;7.55;;
61685;SDS011;47592;45.904;8.978;2023-06-10T07:43:14;9.40;;;7.32;;
61685;SDS011;47592;45.904;8.978;2023-06-10T07:46:38;9.95;;;7.47;;
61685;SDS011;47592;45.904;8.978;2023-06-10T07:50:02;10.77;;;7.70;;
61685;SDS011;47592;45.904;8.978;2023-06-10T07:53:26;11.70;;;8.40;;
61685;SDS011;47592;45.904;8.978;2023-06-10T07:56:50;10.45;;;7.60;;
61685;SDS011;47592;45.904;8.978;2023-06-10T08:00:14;10.82;;;7.97;;
61685;SDS011;47592;45.904;8.978;2023-06-10T08:03:40;11.18;;;8.30;;
61685;SDS011;47592;45.904;8.978;2023-06-10T08:07:09;11.70;;;8.30;;
61685;SDS011;47592;45.904;8.978;2023-06-10T08:10:35;12.23;;;8.45;;
61685;SDS011;47592;45.904;8.978;2023-06-10T08:13:59;11.63;;;9.02;;
61685;SDS011;47592;45.904;8.978;2023-06-10T08:17:20;11.18;;;8.43;;
61685;SDS011;47592;45.904;8.978;2023-06-10T08:20:43;12.70;;;9.50;;
61685;SDS011;47592;45.904;8.978;2023-06-10T08:24:09;12.75;;;9.07;;
61685;SDS011;47592;45.904;8.978;2023-06-10T08:27:33;12.63;;;8.95;;
61685;SDS011;47592;45.904;8.978;2023-06-10T08:30:57;13.52;;;8.88;;
61685;SDS011;47592;45.904;8.978;2023-06-10T08:34:27;11.65;;;8.93;;
61685;SDS011;47592;45.904;8.978;2023-06-10T08:38:03;13.55;;;8.80;;
61685;SDS011;47592;45.904;8.978;2023-06-10T08:41:28;12.82;;;9.40;;
61685;SDS011;47592;45.904;8.978;2023-06-10T08:44:58;12.15;;;9.90;;
61685;SDS011;47592;45.904;8.978;2023-06-10T08:48:25;12.40;;;9.70;;
61685;SDS011;47592;45.904;8.978;2023-06-10T08:51:51;14.20;;;10.45;;
61685;SDS011;47592;45.904;8.978;2023-06-10T08:55:23;12.90;;;10.10;;
61685;SDS011;47592;45.904;8.978;2023-06-10T08:58:50;12.65;;;10.07;;
61685;SDS011;47592;45.904;8.978;2023-06-10T09:02:17;15.25;;;10.88;;
61685;SDS011;47592;45.904;8.978;2023-06-10T09:05:42;11.38;;;9.15;;
61685;SDS011;47592;45.904;8.978;2023-06-10T09:09:08;10.75;;;8.40;;
61685;SDS011;47592;45.904;8.978;2023-06-10T09:12:33;15.73;;;11.43;;
61685;SDS011;47592;45.904;8.978;2023-06-10T09:16:00;9.98;;;8.25;;
61685;SDS011;47592;45.904;8.978;2023-06-10T09:19:27;12.20;;;8.88;;
61685;SDS011;47592;45.904;8.978;2023-06-10T09:22:54;11.50;;;8.50;;
61685;SDS011;47592;45.904;8.978;2023-06-10T09:26:18;11.95;;;8.98;;
61685;SDS011;47592;45.904;8.978;2023-06-10T09:29:45;12.32;;;9.35;;
61685;SDS011;47592;45.904;8.978;2023-06-10T09:33:11;12.02;;;9.65;;
61685;SDS011;47592;45.904;8.978;2023-06-10T09:36:41;14.25;;;9.20;;
61685;SDS011;47592;45.904;8.978;2023-06-10T09:40:06;12.38;;;9.13;;
61685;SDS011;47592;45.904;8.978;2023-06-10T09:43:42;13.13;;;8.90;;
61685;SDS011;47592;45.904;8.978;2023-06-10T09:47:06;12.65;;;10.05;;
61685;SDS011;47592;45.904;8.978;2023-06-10T09:50:33;11.55;;;9.07;;
61685;SDS011;47592;45.904;8.978;2023-06-10T09:53:57;13.77;;;9.68;;
61685;SDS011;47592;45.904;8.978;2023-06-10T09:57:32;15.38;;;9.98;;
61685;SDS011;47592;45.904;8.978;2023-06-10T10:01:02;13.32;;;9.82;;
61685;SDS011;47592;45.904;8.978;2023-06-10T10:04:30;11.48;;;8.80;;
61685;SDS011;47592;45.904;8.978;2023-06-10T10:07:57;10.30;;;8.43;;
61685;SDS011;47592;45.904;8.978;2023-06-10T10:11:21;12.57;;;9.52;;
61685;SDS011;47592;45.904;8.978;2023-06-10T10:14:46;13.45;;;9.95;;
61685;SDS011;47592;45.904;8.978;2023-06-10T10:18:10;13.32;;;9.18;;
61685;SDS011;47592;45.904;8.978;2023-06-10T10:21:53;10.68;;;8.43;;
61685;SDS011;47592;45.904;8.978;2023-06-10T10:25:28;14.07;;;9.23;;
61685;SDS011;47592;45.904;8.978;2023-06-10T10:32:52;10.80;;;8.50;;
61685;SDS011;47592;45.904;8.978;2023-06-10T10:36:19;10.45;;;7.72;;
61685;SDS011;47592;45.904;8.978;2023-06-10T10:39:44;11.20;;;8.35;;
61685;SDS011;47592;45.904;8.978;2023-06-10T10:43:13;10.68;;;7.60;;
61685;SDS011;47592;45.904;8.978;2023-06-10T10:46:41;11.13;;;7.22;;
61685;SDS011;47592;45.904;8.978;2023-06-10T10:50:18;9.68;;;7.30;;
61685;SDS011;47592;45.904;8.978;2023-06-10T10:53:42;9.57;;;6.80;;
61685;SDS011;47592;45.904;8.978;2023-06-10T11:04:11;14.73;;;7.90;;
61685;SDS011;47592;45.904;8.978;2023-06-10T11:07:38;10.35;;;7.40;;
61685;SDS011;47592;45.904;8.978;2023-06-10T11:14:31;10.15;;;7.80;;
61685;SDS011;47592;45.904;8.978;2023-06-10T11:21:31;11.35;;;7.38;;
61685;SDS011;47592;45.904;8.978;2023-06-10T11:24:55;9.25;;;6.88;;
61685;SDS011;47592;45.904;8.978;2023-06-10T11:28:38;10.48;;;7.70;;
61685;SDS011;47592;45.904;8.978;2023-06-10T11:32:05;8.95;;;7.20;;
61685;SDS011;47592;45.904;8.978;2023-06-10T11:35:29;12.35;;;7.65;;
61685;SDS011;47592;45.904;8.978;2023-06-10T11:38:57;10.25;;;7.63;;
61685;SDS011;47592;45.904;8.978;2023-06-10T11:41:28;12.55;;;8.40;;
61685;SDS011;47592;45.904;8.978;2023-06-10T11:44:53;11.90;;;8.25;;
61685;SDS011;47592;45.904;8.978;2023-06-10T11:48:23;14.63;;;9.10;;
61685;SDS011;47592;45.904;8.978;2023-06-10T11:51:47;10.60;;;8.75;;
61685;SDS011;47592;45.904;8.978;2023-06-10T11:55:13;11.85;;;8.00;;
61685;SDS011;47592;45.904;8.978;2023-06-10T11:58:37;10.75;;;8.32;;
61685;SDS011;47592;45.904;8.978;2023-06-10T12:02:09;11.77;;;8.60;;
61685;SDS011;47592;45.904;8.978;2023-06-10T12:05:40;11.75;;;8.40;;
61685;SDS011;47592;45.904;8.978;2023-06-10T12:09:21;13.27;;;8.95;;
61685;SDS011;47592;45.904;8.978;2023-06-10T12:11:59;12.02;;;8.15;;
61685;SDS011;47592;45.904;8.978;2023-06-10T12:15:23;10.88;;;7.93;;
61685;SDS011;47592;45.904;8.978;2023-06-10T12:18:47;11.32;;;8.00;;
61685;SDS011;47592;45.904;8.978;2023-06-10T12:21:20;13.10;;;9.50;;
61685;SDS011;47592;45.904;8.978;2023-06-10T12:29:19;10.15;;;8.00;;
61685;SDS011;47592;45.904;8.978;2023-06-10T12:34:37;10.48;;;7.88;;
61685;SDS011;47592;45.904;8.978;2023-06-10T12:37:05;9.45;;;7.13;;
61685;SDS011;47592;45.904;8.978;2023-06-10T12:43:59;9.55;;;7.47;;
61685;SDS011;47592;45.904;8.978;2023-06-10T12:47:35;11.45;;;7.78;;
61685;SDS011;47592;45.904;8.978;2023-06-10T12:51:02;9.23;;;7.15;;
61685;SDS011;47592;45.904;8.978;2023-06-10T12:54:26;7.85;;;6.45;;
61685;SDS011;47592;45.904;8.978;2023-06-10T12:57:50;9.85;;;6.95;;
61685;SDS011;47592;45.904;8.978;2023-06-10T13:01:16;10.18;;;7.18;;
61685;SDS011;47592;45.904;8.978;2023-06-10T13:04:43;9.38;;;6.80;;
61685;SDS011;47592;45.904;8.978;2023-06-10T13:08:08;9.45;;;6.90;;
61685;SDS011;47592;45.904;8.978;2023-06-10T13:10:35;10.52;;;6.90;;
61685;SDS011;47592;45.904;8.978;2023-06-10T13:14:00;9.40;;;6.85;;
61685;SDS011;47592;45.904;8.978;2023-06-10T13:17:24;9.88;;;7.25;;
61685;SDS011;47592;45.904;8.978;2023-06-10T13:20:48;11.02;;;7.30;;
61685;SDS011;47592;45.904;8.978;2023-06-10T13:24:11;8.70;;;6.57;;
61685;SDS011;47592;45.904;8.978;2023-06-10T13:27:36;9.00;;;6.78;;
61685;SDS011;47592;45.904;8.978;2023-06-10T13:30:59;9.48;;;7.10;;
61685;SDS011;47592;45.904;8.978;2023-06-10T13:34:23;10.57;;;7.05;;
61685;SDS011;47592;45.904;8.978;2023-06-10T13:37:54;10.95;;;7.57;;
61685;SDS011;47592;45.904;8.978;2023-06-10T13:41:18;9.40;;;7.03;;
61685;SDS011;47592;45.904;8.978;2023-06-10T13:44:42;9.20;;;6.32;;
61685;SDS011;47592;45.904;8.978;2023-06-10T13:48:08;10.15;;;6.78;;
61685;SDS011;47592;45.904;8.978;2023-06-10T13:51:32;11.43;;;6.75;;
61685;SDS011;47592;45.904;8.978;2023-06-10T13:54:56;10.77;;;6.60;;
61685;SDS011;47592;45.904;8.978;2023-06-10T13:58:24;8.80;;;6.35;;
61685;SDS011;47592;45.904;8.978;2023-06-10T14:00:50;11.20;;;6.57;;
61685;SDS011;47592;45.904;8.978;2023-06-10T14:03:15;10.77;;;6.10;;
61685;SDS011;47592;45.904;8.978;2023-06-10T14:05:43;8.05;;;6.10;;
61685;SDS011;47592;45.904;8.978;2023-06-10T14:08:08;8.82;;;6.38;;
61685;SDS011;47592;45.904;8.978;2023-06-10T14:10:34;7.57;;;5.88;;
61685;SDS011;47592;45.904;8.978;2023-06-10T14:12:59;8.63;;;5.97;;
61685;SDS011;47592;45.904;8.978;2023-06-10T14:15:27;7.63;;;6.00;;
61685;SDS011;47592;45.904;8.978;2023-06-10T14:17:55;8.50;;;5.50;;
61685;SDS011;47592;45.904;8.978;2023-06-10T14:21:22;9.20;;;5.85;;
61685;SDS011;47592;45.904;8.978;2023-06-10T14:24:49;10.20;;;5.63;;
61685;SDS011;47592;45.904;8.978;2023-06-10T14:28:17;7.93;;;5.80;;
61685;SDS011;47592;45.904;8.978;2023-06-10T14:31:43;8.40;;;5.80;;
61685;SDS011;47592;45.904;8.978;2023-06-10T14:35:07;7.30;;;5.30;;
61685;SDS011;47592;45.904;8.978;2023-06-10T14:38:31;7.97;;;5.22;;
61685;SDS011;47592;45.904;8.978;2023-06-10T14:41:55;8.65;;;5.28;;
61685;SDS011;47592;45.904;8.978;2023-06-10T14:45:19;10.15;;;5.10;;
61685;SDS011;47592;45.904;8.978;2023-06-10T14:48:45;8.50;;;5.75;;
61685;SDS011;47592;45.904;8.978;2023-06-10T14:52:09;7.57;;;5.20;;
61685;SDS011;47592;45.904;8.978;2023-06-10T14:55:33;7.18;;;4.90;;
61685;SDS011;47592;45.904;8.978;2023-06-10T14:58:15;7.68;;;5.28;;
61685;SDS011;47592;45.904;8.978;2023-06-10T15:01:39;9.15;;;4.95;;
61685;SDS011;47592;45.904;8.978;2023-06-10T15:05:05;8.50;;;5.32;;
61685;SDS011;47592;45.904;8.978;2023-06-10T15:08:29;6.75;;;4.78;;
61685;SDS011;47592;45.904;8.978;2023-06-10T15:11:53;8.10;;;5.20;;
61685;SDS011;47592;45.904;8.978;2023-06-10T15:15:21;7.75;;;5.05;;
61685;SDS011;47592;45.904;8.978;2023-06-10T15:18:45;7.45;;;5.30;;
61685;SDS011;47592;45.904;8.978;2023-06-10T15:22:09;8.95;;;5.00;;
61685;SDS011;47592;45.904;8.978;2023-06-10T15:25:33;7.05;;;4.38;;
61685;SDS011;47592;45.904;8.978;2023-06-10T15:28:59;6.90;;;5.13;;
61685;SDS011;47592;45.904;8.978;2023-06-10T15:32:23;8.25;;;5.03;;
61685;SDS011;47592;45.904;8.978;2023-06-10T15:35:49;6.68;;;4.93;;
61685;SDS011;47592;45.904;8.978;2023-06-10T15:39:13;8.23;;;4.40;;
61685;SDS011;47592;45.904;8.978;2023-06-10T15:42:37;8.10;;;4.63;;
61685;SDS011;47592;45.904;8.978;2023-06-10T15:46:01;6.32;;;4.25;;
61685;SDS011;47592;45.904;8.978;2023-06-10T15:49:25;7.68;;;4.38;;
61685;SDS011;47592;45.904;8.978;2023-06-10T15:52:49;7.72;;;5.13;;
61685;SDS011;47592;45.904;8.978;2023-06-10T15:56:13;6.93;;;4.65;;
61685;SDS011;47592;45.904;8.978;2023-06-10T15:59:37;6.57;;;4.53;;
61685;SDS011;47592;45.904;8.978;2023-06-10T16:03:03;7.57;;;4.57;;
61685;SDS011;47592;45.904;8.978;2023-06-10T16:06:27;5.88;;;4.47;;
61685;SDS011;47592;45.904;8.978;2023-06-10T16:09:53;8.20;;;4.80;;
61685;SDS011;47592;45.904;8.978;2023-06-10T16:13:20;7.28;;;4.68;;
61685;SDS011;47592;45.904;8.978;2023-06-10T16:16:44;8.00;;;5.40;;
61685;SDS011;47592;45.904;8.978;2023-06-10T16:20:08;9.20;;;5.50;;
61685;SDS011;47592;45.904;8.978;2023-06-10T16:23:32;7.07;;;4.90;;
61685;SDS011;47592;45.904;8.978;2023-06-10T16:26:58;8.73;;;5.43;;
61685;SDS011;47592;45.904;8.978;2023-06-10T16:30:22;8.18;;;5.00;;
61685;SDS011;47592;45.904;8.978;2023-06-10T16:33:46;7.35;;;5.50;;
61685;SDS011;47592;45.904;8.978;2023-06-10T16:37:10;10.07;;;8.02;;
61685;SDS011;47592;45.904;8.978;2023-06-10T16:40:34;10.10;;;7.43;;
61685;SDS011;47592;45.904;8.978;2023-06-10T16:43:58;9.55;;;7.75;;
61685;SDS011;47592;45.904;8.978;2023-06-10T16:47:22;11.25;;;7.63;;
61685;SDS011;47592;45.904;8.978;2023-06-10T16:50:48;10.80;;;7.30;;
61685;SDS011;47592;45.904;8.978;2023-06-10T16:54:15;9.68;;;7.30;;
61685;SDS011;47592;45.904;8.978;2023-06-10T16:57:38;12.10;;;7.63;;
61685;SDS011;47592;45.904;8.978;2023-06-10T17:01:06;11.43;;;7.70;;
61685;SDS011;47592;45.904;8.978;2023-06-10T17:04:30;9.82;;;7.13;;
61685;SDS011;47592;45.904;8.978;2023-06-10T17:07:55;10.60;;;7.05;;
61685;SDS011;47592;45.904;8.978;2023-06-10T17:11:18;12.38;;;7.93;;
61685;SDS011;47592;45.904;8.978;2023-06-10T17:14:42;11.13;;;7.45;;
61685;SDS011;47592;45.904;8.978;2023-06-10T17:18:06;12.85;;;7.90;;
61685;SDS011;47592;45.904;8.978;2023-06-10T17:21:32;9.45;;;6.97;;
61685;SDS011;47592;45.904;8.978;2023-06-10T17:25:02;10.35;;;7.25;;
61685;SDS011;47592;45.904;8.978;2023-06-10T17:28:25;9.93;;;6.63;;
61685;SDS011;47592;45.904;8.978;2023-06-10T17:31:51;10.93;;;7.03;;
61685;SDS011;47592;45.904;8.978;2023-06-10T17:34:30;8.65;;;6.63;;
61685;SDS011;47592;45.904;8.978;2023-06-10T17:37:54;8.77;;;6.47;;
61685;SDS011;47592;45.904;8.978;2023-06-10T17:41:20;7.85;;;5.53;;
61685;SDS011;47592;45.904;8.978;2023-06-10T17:44:47;8.30;;;5.70;;
61685;SDS011;47592;45.904;8.978;2023-06-10T17:48:11;8.60;;;5.50;;
61685;SDS011;47592;45.904;8.978;2023-06-10T17:51:37;8.18;;;5.40;;
61685;SDS011;47592;45.904;8.978;2023-06-10T17:55:03;8.90;;;6.70;;
61685;SDS011;47592;45.904;8.978;2023-06-10T17:58:27;10.63;;;6.68;;
61685;SDS011;47592;45.904;8.978;2023-06-10T18:01:51;9.60;;;6.50;;
61685;SDS011;47592;45.904;8.978;2023-06-10T18:05:15;9.30;;;7.28;;
61685;SDS011;47592;45.904;8.978;2023-06-10T18:08:39;9.90;;;7.22;;
61685;SDS011;47592;45.904;8.978;2023-06-10T18:12:03;9.55;;;7.38;;
61685;SDS011;47592;45.904;8.978;2023-06-10T18:15:27;9.40;;;6.80;;
61685;SDS011;47592;45.904;8.978;2023-06-10T18:18:53;10.40;;;7.50;;
61685;SDS011;47592;45.904;8.978;2023-06-10T18:22:17;8.60;;;6.80;;
61685;SDS011;47592;45.904;8.978;2023-06-10T18:25:41;11.05;;;8.30;;
61685;SDS011;47592;45.904;8.978;2023-06-10T18:29:05;14.73;;;7.47;;
61685;SDS011;47592;45.904;8.978;2023-06-10T18:32:29;10.75;;;8.18;;
61685;SDS011;47592;45.904;8.978;2023-06-10T18:35:55;10.90;;;7.95;;
61685;SDS011;47592;45.904;8.978;2023-06-10T18:39:24;11.80;;;8.33;;
61685;SDS011;47592;45.904;8.978;2023-06-10T18:42:50;10.50;;;7.00;;
61685;SDS011;47592;45.904;8.978;2023-06-10T18:46:14;10.40;;;7.22;;
61685;SDS011;47592;45.904;8.978;2023-06-10T18:49:38;10.48;;;7.00;;
61685;SDS011;47592;45.904;8.978;2023-06-10T18:53:02;11.00;;;7.47;;
61685;SDS011;47592;45.904;8.978;2023-06-10T18:56:27;10.48;;;6.90;;
61685;SDS011;47592;45.904;8.978;2023-06-10T18:59:51;9.75;;;7.60;;
61685;SDS011;47592;45.904;8.978;2023-06-10T19:03:15;10.30;;;8.02;;
61685;SDS011;47592;45.904;8.978;2023-06-10T19:06:41;10.38;;;8.30;;
61685;SDS011;47592;45.904;8.978;2023-06-10T19:10:06;10.27;;;7.75;;
61685;SDS011;47592;45.904;8.978;2023-06-10T19:13:32;10.82;;;7.43;;
61685;SDS011;47592;45.904;8.978;2023-06-10T19:16:59;10.45;;;8.07;;
61685;SDS011;47592;45.904;8.978;2023-06-10T19:20:22;9.98;;;7.60;;
61685;SDS011;47592;45.904;8.978;2023-06-10T19:22:54;11.50;;;8.18;;
61685;SDS011;47592;45.904;8.978;2023-06-10T19:26:19;9.45;;;7.93;;
61685;SDS011;47592;45.904;8.978;2023-06-10T19:29:43;10.18;;;7.90;;
61685;SDS011;47592;45.904;8.978;2023-06-10T19:33:07;9.13;;;7.32;;
61685;SDS011;47592;45.904;8.978;2023-06-10T19:36:31;9.98;;;7.28;;
61685;SDS011;47592;45.904;8.978;2023-06-10T19:39:58;9.65;;;7.28;;
61685;SDS011;47592;45.904;8.978;2023-06-10T19:43:24;11.43;;;7.78;;
61685;SDS011;47592;45.904;8.978;2023-06-10T19:46:48;9.50;;;7.15;;
61685;SDS011;47592;45.904;8.978;2023-06-10T19:50:12;9.75;;;7.15;;
61685;SDS011;47592;45.904;8.978;2023-06-10T19:53:36;9.63;;;7.45;;
61685;SDS011;47592;45.904;8.978;2023-06-10T19:57:05;9.77;;;7.65;;
61685;SDS011;47592;45.904;8.978;2023-06-10T20:00:29;11.43;;;8.27;;
61685;SDS011;47592;45.904;8.978;2023-06-10T20:03:53;10.15;;;7.95;;
61685;SDS011;47592;45.904;8.978;2023-06-10T20:07:17;9.27;;;7.05;;
61685;SDS011;47592;45.904;8.978;2023-06-10T20:10:41;10.27;;;7.68;;
61685;SDS011;47592;45.904;8.978;2023-06-10T20:14:05;10.30;;;7.45;;
61685;SDS011;47592;45.904;8.978;2023-06-10T20:17:34;10.85;;;7.80;;
61685;SDS011;47592;45.904;8.978;2023-06-10T20:20:59;9.20;;;7.85;;
61685;SDS011;47592;45.904;8.978;2023-06-10T20:24:24;10.00;;;7.90;;
61685;SDS011;47592;45.904;8.978;2023-06-10T20:27:48;9.65;;;7.03;;
61685;SDS011;47592;45.904;8.978;2023-06-10T20:31:12;9.70;;;6.97;;